createdAt,value
2018-03-29T00:01:46.204Z,1.33
2018-03-29T00:04:13.338Z,1.87
2018-03-29T00:06:39.859Z,1.48
2018-03-29T00:09:07.354Z,3.10
2018-03-29T00:11:34.655Z,3.22
2018-03-29T00:14:01.127Z,2.72
2018-03-29T00:16:27.618Z,2.10
2018-03-29T00:18:54.113Z,2.87
2018-03-29T00:21:21.307Z,2.40
2018-03-29T00:23:47.853Z,3.33
2018-03-29T00:26:14.354Z,3.75
2018-03-29T00:28:40.856Z,3.20
2018-03-29T00:31:07.267Z,2.75
2018-03-29T00:33:33.878Z,3.60
2018-03-29T00:36:00.325Z,3.70
2018-03-29T00:38:26.764Z,3.08
2018-03-29T00:40:53.225Z,2.17
2018-03-29T00:43:20.412Z,2.78
2018-03-29T00:45:46.909Z,2.20
2018-03-29T00:48:14.095Z,4.78
2018-03-29T00:50:40.525Z,2.90
2018-03-29T00:53:19.027Z,1.92
2018-03-29T00:55:45.500Z,3.28
2018-03-29T00:58:12.028Z,2.60
2018-03-29T01:00:38.467Z,3.10
2018-03-29T01:03:05.090Z,3.53
2018-03-29T01:05:31.549Z,2.08
2018-03-29T01:07:58.041Z,4.53
2018-03-29T01:10:24.464Z,3.70
2018-03-29T01:12:50.999Z,4.20
2018-03-29T01:15:17.429Z,2.97
2018-03-29T01:17:43.968Z,3.45
2018-03-29T01:20:10.369Z,2.65
2018-03-29T01:22:36.805Z,2.80
2018-03-29T01:25:03.241Z,2.60
2018-03-29T01:27:30.411Z,3.70
2018-03-29T01:29:56.998Z,2.25
2018-03-29T01:32:35.482Z,3.85
2018-03-29T01:35:02.005Z,3.22
2018-03-29T01:37:28.480Z,3.55
2018-03-29T01:39:55.035Z,4.40
2018-03-29T01:42:21.453Z,3.97
2018-03-29T01:44:47.957Z,3.78
2018-03-29T01:47:14.412Z,3.62
2018-03-29T01:49:40.871Z,4.65
2018-03-29T01:52:08.044Z,3.15
2018-03-29T01:54:34.456Z,2.55
2018-03-29T01:57:01.754Z,3.37
2018-03-29T01:59:28.210Z,2.90
2018-03-29T02:01:54.746Z,5.28
2018-03-29T02:04:21.166Z,3.22
2018-03-29T02:06:47.618Z,2.87
2018-03-29T02:09:14.058Z,3.25
2018-03-29T02:11:40.551Z,2.75
2018-03-29T02:14:08.715Z,3.78
2018-03-29T02:16:35.238Z,2.60
2018-03-29T02:19:01.730Z,3.87
2018-03-29T02:21:28.332Z,2.12
2018-03-29T02:23:54.843Z,2.05
2018-03-29T02:26:21.284Z,3.35
2018-03-29T02:28:47.785Z,3.05
2018-03-29T02:31:14.962Z,3.95
2018-03-29T02:33:41.418Z,4.12
2018-03-29T02:36:07.840Z,1.75
2018-03-29T02:38:34.269Z,3.00
2018-03-29T02:41:00.709Z,2.85
2018-03-29T02:43:27.205Z,2.40
2018-03-29T02:45:53.632Z,3.03
2018-03-29T02:48:20.804Z,3.05
2018-03-29T02:50:47.267Z,2.87
2018-03-29T02:53:13.704Z,1.92
2018-03-29T02:55:40.146Z,3.65
2018-03-29T02:58:06.546Z,2.30
2018-03-29T03:00:32.964Z,2.95
2018-03-29T03:02:59.493Z,5.18
2018-03-29T03:05:25.910Z,3.10
2018-03-29T03:07:53.229Z,3.87
2018-03-29T03:10:19.651Z,3.58
2018-03-29T03:12:46.306Z,6.97
2018-03-29T03:15:12.760Z,5.20
2018-03-29T03:17:39.962Z,3.90
2018-03-29T03:20:06.773Z,3.30
2018-03-29T03:22:33.229Z,3.58
2018-03-29T03:24:59.722Z,3.33
2018-03-29T03:27:26.986Z,3.78
2018-03-29T03:29:53.445Z,5.03
2018-03-29T03:32:19.970Z,2.62
2018-03-29T03:34:46.433Z,4.85
2018-03-29T03:37:12.917Z,2.50
2018-03-29T03:39:39.377Z,2.47
2018-03-29T03:42:05.855Z,4.40
2018-03-29T03:44:32.278Z,4.12
2018-03-29T03:46:58.736Z,4.15
2018-03-29T03:49:25.977Z,4.20
2018-03-29T03:51:52.383Z,3.80
2018-03-29T03:54:18.966Z,4.43
2018-03-29T03:56:46.159Z,4.20
2018-03-29T03:59:12.607Z,3.37
2018-03-29T04:01:39.005Z,4.28
2018-03-29T04:04:05.465Z,4.28
2018-03-29T04:06:31.916Z,2.20
2018-03-29T04:08:58.387Z,3.37
2018-03-29T04:11:24.849Z,3.40
2018-03-29T04:13:51.732Z,3.62
2018-03-29T04:16:18.222Z,3.05
2018-03-29T04:18:44.645Z,3.65
2018-03-29T04:21:11.160Z,4.45
2018-03-29T04:23:38.311Z,3.50
2018-03-29T04:26:05.487Z,4.60
2018-03-29T04:28:32.042Z,3.90
2018-03-29T04:30:58.476Z,3.50
2018-03-29T04:33:24.989Z,4.78
2018-03-29T04:35:51.434Z,2.35
2018-03-29T04:38:17.994Z,4.40
2018-03-29T04:40:44.405Z,5.00
2018-03-29T04:43:10.907Z,3.72
2018-03-29T04:45:37.464Z,3.15
2018-03-29T04:48:03.953Z,4.20
2018-03-29T04:50:31.117Z,3.60
2018-03-29T04:52:57.567Z,4.65
2018-03-29T04:55:24.033Z,3.45
2018-03-29T04:57:50.457Z,4.60
2018-03-29T05:00:16.917Z,5.00
2018-03-29T05:02:43.342Z,5.05
2018-03-29T05:05:09.790Z,4.85
2018-03-29T05:07:37.113Z,5.12
2018-03-29T05:10:04.286Z,4.47
2018-03-29T05:12:30.749Z,4.40
2018-03-29T05:14:57.304Z,4.90
2018-03-29T05:17:23.786Z,5.68
2018-03-29T05:19:50.272Z,5.32
2018-03-29T05:22:16.718Z,5.45
2018-03-29T05:24:43.221Z,5.10
2018-03-29T05:27:16.369Z,5.47
2018-03-29T05:29:42.812Z,5.25
2018-03-29T05:32:09.371Z,6.30
2018-03-29T05:34:36.661Z,7.03
2018-03-29T05:37:03.182Z,5.53
2018-03-29T05:39:29.605Z,5.97
2018-03-29T05:41:56.117Z,5.15
2018-03-29T05:44:23.356Z,5.75
2018-03-29T05:46:49.790Z,6.40
2018-03-29T05:49:17.043Z,6.45
2018-03-29T05:51:43.457Z,6.45
2018-03-29T05:54:09.877Z,6.20
2018-03-29T05:56:36.322Z,5.03
2018-03-29T05:59:02.761Z,5.00
2018-03-29T06:01:29.180Z,4.97
2018-03-29T06:03:55.680Z,5.55
2018-03-29T06:06:22.095Z,4.80
2018-03-29T06:08:48.503Z,5.22
2018-03-29T06:11:14.994Z,6.70
2018-03-29T06:13:41.440Z,6.25
2018-03-29T06:16:07.910Z,5.80
2018-03-29T06:18:35.091Z,5.57
2018-03-29T06:21:01.543Z,4.93
2018-03-29T06:23:28.003Z,5.70
2018-03-29T06:25:54.479Z,5.23
2018-03-29T06:28:21.058Z,6.27
2018-03-29T06:30:47.482Z,5.93
2018-03-29T06:33:13.923Z,4.93
2018-03-29T06:35:40.366Z,5.03
2018-03-29T06:38:06.849Z,5.80
2018-03-29T06:40:33.310Z,5.78
2018-03-29T06:42:59.790Z,6.43
2018-03-29T06:45:27.060Z,5.62
2018-03-29T06:47:53.521Z,4.55
2018-03-29T06:50:20.019Z,4.90
2018-03-29T06:52:46.463Z,4.72
2018-03-29T06:55:12.974Z,3.65
2018-03-29T06:57:40.221Z,5.18
2018-03-29T07:00:07.497Z,2.83
2018-03-29T07:02:33.926Z,3.90
2018-03-29T07:05:00.405Z,3.15
2018-03-29T07:07:26.830Z,3.33
2018-03-29T07:09:53.349Z,3.70
2018-03-29T07:12:19.770Z,3.80
2018-03-29T07:14:46.326Z,4.17
2018-03-29T07:17:12.731Z,2.70
2018-03-29T07:19:39.201Z,3.83
2018-03-29T07:22:05.617Z,2.57
2018-03-29T07:24:32.097Z,3.30
2018-03-29T07:26:59.351Z,3.77
2018-03-29T07:29:25.759Z,2.80
2018-03-29T07:31:52.194Z,3.70
2018-03-29T07:34:18.621Z,2.43
2018-03-29T07:36:45.156Z,3.77
2018-03-29T07:39:11.530Z,3.47
2018-03-29T07:41:38.697Z,3.70
2018-03-29T07:44:05.148Z,3.60
2018-03-29T07:46:31.558Z,2.30
2018-03-29T07:48:58.081Z,2.93
2018-03-29T07:51:24.492Z,3.70
2018-03-29T07:53:51.701Z,3.40
2018-03-29T07:56:18.142Z,3.33
2018-03-29T07:58:44.625Z,2.43
2018-03-29T08:01:11.895Z,3.73
2018-03-29T08:03:39.151Z,4.37
2018-03-29T08:06:05.584Z,4.00
2018-03-29T08:08:32.216Z,4.90
2018-03-29T08:10:58.697Z,2.57
2018-03-29T08:13:25.210Z,4.00
2018-03-29T08:15:51.696Z,4.72
2018-03-29T08:18:18.214Z,4.18
2018-03-29T08:20:45.401Z,4.30
2018-03-29T08:23:11.861Z,4.63
2018-03-29T08:25:38.301Z,3.13
2018-03-29T08:28:04.749Z,19.20
2018-03-29T08:30:31.230Z,11.90
2018-03-29T08:32:57.630Z,8.30
2018-03-29T08:35:24.855Z,6.20
2018-03-29T08:37:51.370Z,6.70
2018-03-29T08:40:17.810Z,3.20
2018-03-29T08:42:44.474Z,4.20
2018-03-29T08:45:10.925Z,6.70
2018-03-29T08:47:38.683Z,6.07
2018-03-29T08:50:05.892Z,6.57
2018-03-29T08:52:32.381Z,5.77
2018-03-29T08:54:58.814Z,5.83
2018-03-29T08:57:25.990Z,5.90
2018-03-29T08:59:52.440Z,6.27
2018-03-29T09:02:18.894Z,5.67
2018-03-29T09:04:45.353Z,6.47
2018-03-29T09:07:12.561Z,5.37
2018-03-29T09:09:38.959Z,5.47
2018-03-29T09:12:06.241Z,5.27
2018-03-29T09:14:33.493Z,5.97
2018-03-29T09:17:00.013Z,5.60
2018-03-29T09:19:26.438Z,5.77
2018-03-29T09:21:52.870Z,5.43
2018-03-29T09:24:19.418Z,6.47
2018-03-29T09:26:45.816Z,6.23
2018-03-29T09:29:12.277Z,6.33
2018-03-29T09:31:38.676Z,6.60
2018-03-29T09:34:05.215Z,7.33
2018-03-29T09:36:31.688Z,5.90
2018-03-29T09:38:58.237Z,6.60
2018-03-29T09:41:24.718Z,6.30
2018-03-29T09:43:51.930Z,5.40
2018-03-29T09:46:18.401Z,6.37
2018-03-29T09:48:44.830Z,5.43
2018-03-29T09:51:12.868Z,6.17
2018-03-29T09:53:39.336Z,5.83
2018-03-29T09:56:05.789Z,4.40
2018-03-29T09:58:32.221Z,5.40
2018-03-29T10:01:04.650Z,6.40
2018-03-29T10:03:31.090Z,5.93
2018-03-29T10:06:04.232Z,4.97
2018-03-29T10:08:30.699Z,5.57
2018-03-29T10:10:57.166Z,4.20
2018-03-29T10:13:23.599Z,6.20
2018-03-29T10:15:50.072Z,5.60
2018-03-29T10:18:16.522Z,6.00
2018-03-29T10:20:43.013Z,5.70
2018-03-29T10:23:09.516Z,5.20
2018-03-29T10:25:36.780Z,5.93
2018-03-29T10:28:03.241Z,5.30
2018-03-29T10:30:29.669Z,4.57
2018-03-29T10:32:56.148Z,5.43
2018-03-29T10:35:23.351Z,5.97
2018-03-29T10:37:49.875Z,5.07
2018-03-29T10:40:16.328Z,4.97
2018-03-29T10:42:42.763Z,6.00
2018-03-29T10:45:09.204Z,6.60
2018-03-29T10:47:35.633Z,4.70
2018-03-29T10:50:02.014Z,5.40
2018-03-29T10:52:29.290Z,5.23
2018-03-29T10:54:55.685Z,6.00
2018-03-29T10:57:22.869Z,6.07
2018-03-29T10:59:49.339Z,5.70
2018-03-29T11:02:16.615Z,6.40
2018-03-29T11:04:43.802Z,6.40
2018-03-29T11:07:10.203Z,6.20
2018-03-29T11:09:38.263Z,5.80
2018-03-29T11:12:04.755Z,6.03
2018-03-29T11:14:31.213Z,6.67
2018-03-29T11:16:57.781Z,5.83
2018-03-29T11:19:24.337Z,6.27
2018-03-29T11:21:50.747Z,6.00
2018-03-29T11:24:17.986Z,5.87
2018-03-29T11:26:44.522Z,6.50
2018-03-29T11:29:10.973Z,5.53
2018-03-29T11:31:38.136Z,5.33
2018-03-29T11:34:04.606Z,5.33
2018-03-29T11:36:45.918Z,5.83
2018-03-29T11:41:53.849Z,5.80
2018-03-29T11:44:20.450Z,6.13
2018-03-29T11:46:46.995Z,5.93
2018-03-29T11:49:13.536Z,5.30
2018-03-29T11:51:40.131Z,5.00
2018-03-29T11:54:06.726Z,5.10
2018-03-29T11:56:33.436Z,5.20
2018-03-29T11:59:00.007Z,4.87
2018-03-29T12:01:26.722Z,4.57
2018-03-29T12:03:53.416Z,4.77
2018-03-29T12:06:20.017Z,4.40
2018-03-29T12:08:46.720Z,4.37
2018-03-29T12:11:13.376Z,3.90
2018-03-29T12:13:40.028Z,5.17
2018-03-29T12:16:06.721Z,4.10
2018-03-29T12:18:33.424Z,4.57
2018-03-29T12:20:59.925Z,4.70
2018-03-29T12:23:26.410Z,4.33
2018-03-29T12:25:52.978Z,3.50
2018-03-29T12:28:19.671Z,4.07
2018-03-29T12:30:48.016Z,3.80
2018-03-29T12:33:14.576Z,3.43
2018-03-29T12:35:41.244Z,3.43
2018-03-29T12:38:07.892Z,3.77
2018-03-29T12:40:35.148Z,4.30
2018-03-29T12:43:02.339Z,3.77
2018-03-29T12:45:29.840Z,3.97
2018-03-29T12:47:56.600Z,3.70
2018-03-29T12:50:23.245Z,3.87
2018-03-29T12:52:50.441Z,3.80
2018-03-29T12:55:29.260Z,3.77
2018-03-29T12:58:08.589Z,4.50
2018-03-29T13:00:35.370Z,5.20
2018-03-29T13:03:01.809Z,3.80
2018-03-29T13:05:29.040Z,5.67
2018-03-29T13:07:55.577Z,4.50
2018-03-29T13:10:22.231Z,3.93
2018-03-29T13:12:49.499Z,3.30
2018-03-29T13:15:16.874Z,3.43
2018-03-29T13:17:43.404Z,3.83
2018-03-29T13:20:09.872Z,3.80
2018-03-29T13:22:36.340Z,3.70
2018-03-29T13:25:03.528Z,4.10
2018-03-29T13:27:30.027Z,3.80
2018-03-29T13:29:57.378Z,4.33
2018-03-29T13:32:23.824Z,3.70
2018-03-29T13:34:51.044Z,4.07
2018-03-29T13:37:17.556Z,4.00
2018-03-29T13:39:44.083Z,4.20
2018-03-29T13:42:10.588Z,3.87
2018-03-29T13:44:37.086Z,3.77
2018-03-29T13:47:03.723Z,3.90
2018-03-29T13:49:30.249Z,4.57
2018-03-29T13:51:56.703Z,3.40
2018-03-29T13:54:23.357Z,3.90
2018-03-29T13:56:50.588Z,3.77
2018-03-29T13:59:17.129Z,3.97
2018-03-29T14:01:43.755Z,3.57
2018-03-29T14:04:11.222Z,4.43
2018-03-29T14:06:37.660Z,3.33
2018-03-29T14:09:04.824Z,4.50
2018-03-29T14:11:32.075Z,3.77
2018-03-29T14:13:59.273Z,4.43
2018-03-29T14:16:25.749Z,4.50
2018-03-29T14:18:52.944Z,3.97
2018-03-29T14:21:20.174Z,4.07
2018-03-29T14:23:46.672Z,3.50
2018-03-29T14:26:13.154Z,3.37
2018-03-29T14:28:39.696Z,3.53
2018-03-29T14:31:06.195Z,4.00
2018-03-29T14:33:33.412Z,3.63
2018-03-29T14:36:00.072Z,4.20
2018-03-29T14:38:27.332Z,4.13
2018-03-29T14:40:54.687Z,3.77
2018-03-29T14:43:21.212Z,4.33
2018-03-29T14:45:48.451Z,4.23
2018-03-29T14:48:15.064Z,4.07
2018-03-29T14:50:42.465Z,4.30
2018-03-29T14:53:09.075Z,5.23
2018-03-29T14:55:35.564Z,4.40
2018-03-29T14:58:01.996Z,4.87
2018-03-29T15:00:28.526Z,5.00
2018-03-29T15:02:54.987Z,4.30
2018-03-29T15:05:21.800Z,4.63
2018-03-29T15:07:48.371Z,4.77
2018-03-29T15:10:14.865Z,4.10
2018-03-29T15:12:41.371Z,3.43
2018-03-29T15:15:07.880Z,4.40
2018-03-29T15:17:34.539Z,4.43
2018-03-29T15:20:01.903Z,3.80
2018-03-29T15:22:29.879Z,3.73
2018-03-29T15:24:57.174Z,3.77
2018-03-29T15:27:23.624Z,4.00
2018-03-29T15:29:50.143Z,4.13
2018-03-29T15:32:16.601Z,3.57
2018-03-29T15:34:43.168Z,3.83
2018-03-29T15:37:10.522Z,4.10
2018-03-29T15:39:37.784Z,4.10
2018-03-29T15:42:05.076Z,4.90
2018-03-29T15:44:31.519Z,3.73
2018-03-29T15:46:58.243Z,4.17
2018-03-29T15:49:24.755Z,5.03
2018-03-29T15:51:51.272Z,5.20
2018-03-29T15:54:18.563Z,5.60
2018-03-29T15:56:45.078Z,5.23
2018-03-29T15:59:12.536Z,3.90
2018-03-29T16:01:39.126Z,3.43
2018-03-29T16:04:05.553Z,3.20
2018-03-29T16:06:32.015Z,3.70
2018-03-29T16:08:58.529Z,4.07
2018-03-29T16:11:25.475Z,3.90
2018-03-29T16:13:52.043Z,3.90
2018-03-29T16:16:19.353Z,4.20
2018-03-29T16:18:45.855Z,3.80
2018-03-29T16:21:12.316Z,4.40
2018-03-29T16:23:38.928Z,3.90
2018-03-29T16:26:05.505Z,3.87
2018-03-29T16:28:32.038Z,4.27
2018-03-29T16:30:58.559Z,4.43
2018-03-29T16:33:25.064Z,3.90
2018-03-29T16:35:51.672Z,3.70
2018-03-29T16:38:18.964Z,4.20
2018-03-29T16:40:45.511Z,3.63
2018-03-29T16:43:12.186Z,3.87
2018-03-29T16:45:38.691Z,4.10
2018-03-29T16:48:05.348Z,3.77
2018-03-29T16:50:31.895Z,4.70
2018-03-29T16:52:58.380Z,3.77
2018-03-29T16:55:25.000Z,3.83
2018-03-29T16:57:51.482Z,4.23
2018-03-29T17:00:17.929Z,4.23
2018-03-29T17:02:45.315Z,3.87
2018-03-29T17:05:11.767Z,4.60
2018-03-29T17:07:38.260Z,4.37
2018-03-29T17:10:04.739Z,4.20
2018-03-29T17:12:31.229Z,4.67
2018-03-29T17:14:57.702Z,4.63
2018-03-29T17:17:24.224Z,5.03
2018-03-29T17:19:50.830Z,5.23
2018-03-29T17:22:17.245Z,5.27
2018-03-29T17:24:43.710Z,4.73
2018-03-29T17:27:11.004Z,5.20
2018-03-29T17:29:37.556Z,4.73
2018-03-29T17:32:05.041Z,5.43
2018-03-29T17:34:31.514Z,4.80
2018-03-29T17:36:58.154Z,4.77
2018-03-29T17:39:25.415Z,4.57
2018-03-29T17:41:51.883Z,5.00
2018-03-29T17:44:18.390Z,5.80
2018-03-29T17:46:44.925Z,4.80
2018-03-29T17:49:11.624Z,5.60
2018-03-29T17:51:38.798Z,7.20
2018-03-29T17:54:05.262Z,6.20
2018-03-29T17:56:31.768Z,5.13
2018-03-29T17:58:58.285Z,6.43
2018-03-29T18:01:24.869Z,5.90
2018-03-29T18:03:51.407Z,7.40
2018-03-29T18:06:17.927Z,6.10
2018-03-29T18:08:44.453Z,8.30
2018-03-29T18:11:10.985Z,9.07
2018-03-29T18:13:37.520Z,7.87
2018-03-29T18:16:04.039Z,5.50
2018-03-29T18:18:30.663Z,4.80
2018-03-29T18:20:57.945Z,6.20
2018-03-29T18:23:25.572Z,6.37
2018-03-29T18:25:52.859Z,5.50
2018-03-29T18:28:19.391Z,6.07
2018-03-29T18:30:45.928Z,6.10
2018-03-29T18:33:12.494Z,5.83
2018-03-29T18:35:39.201Z,5.30
2018-03-29T18:38:05.711Z,5.10
2018-03-29T18:40:32.944Z,5.13
2018-03-29T18:42:59.571Z,5.90
2018-03-29T18:45:26.031Z,5.70
2018-03-29T18:47:53.325Z,6.27
2018-03-29T18:50:19.922Z,6.60
2018-03-29T18:52:47.204Z,5.70
2018-03-29T18:55:13.856Z,6.30
2018-03-29T18:57:40.448Z,6.10
2018-03-29T19:00:07.864Z,4.50
2018-03-29T19:02:34.377Z,4.80
2018-03-29T19:05:00.866Z,6.27
2018-03-29T19:07:28.128Z,7.10
2018-03-29T19:09:55.514Z,6.10
2018-03-29T19:12:22.000Z,6.90
2018-03-29T19:14:49.266Z,6.68
2018-03-29T19:17:16.503Z,6.57
2018-03-29T19:19:43.700Z,6.53
2018-03-29T19:22:10.331Z,8.15
2018-03-29T19:24:36.884Z,10.23
2018-03-29T19:27:03.488Z,6.90
2018-03-29T19:29:30.025Z,8.82
2018-03-29T19:31:56.739Z,12.40
2018-03-29T19:34:23.992Z,17.00
2018-03-29T19:36:51.123Z,9.95
2018-03-29T19:39:18.842Z,8.18
2018-03-29T19:41:45.386Z,5.53
2018-03-29T19:44:11.874Z,8.05
2018-03-29T19:46:38.403Z,6.78
2018-03-29T19:49:04.951Z,5.95
2018-03-29T19:51:32.240Z,5.05
2018-03-29T19:53:58.877Z,5.35
2018-03-29T19:56:25.458Z,5.10
2018-03-29T19:58:52.061Z,5.62
2018-03-29T20:01:18.588Z,10.20
2018-03-29T20:03:45.212Z,7.35
2018-03-29T20:06:11.886Z,7.87
2018-03-29T20:08:38.576Z,7.15
2018-03-29T20:11:05.292Z,9.95
2018-03-29T20:13:32.024Z,9.98
2018-03-29T20:15:58.652Z,10.63
2018-03-29T20:18:25.203Z,9.27
2018-03-29T20:20:51.763Z,10.07
2018-03-29T20:23:18.389Z,7.78
2018-03-29T20:25:45.724Z,7.87
2018-03-29T20:28:12.151Z,7.55
2018-03-29T20:30:38.665Z,7.72
2018-03-29T20:33:05.213Z,8.48
2018-03-29T20:35:32.553Z,11.18
2018-03-29T20:37:59.091Z,9.07
2018-03-29T20:40:25.623Z,10.20
2018-03-29T20:42:52.144Z,8.73
2018-03-29T20:45:18.664Z,10.35
2018-03-29T20:47:45.189Z,8.45
2018-03-29T20:50:12.580Z,11.00
2018-03-29T20:52:39.077Z,10.95
2018-03-29T20:55:06.283Z,12.10
2018-03-29T20:57:32.828Z,11.82
2018-03-29T20:59:59.296Z,10.48
2018-03-29T21:02:26.577Z,12.98
2018-03-29T21:04:53.156Z,12.27
2018-03-29T21:07:19.642Z,9.80
2018-03-29T21:09:46.224Z,11.65
2018-03-29T21:12:12.704Z,9.75
2018-03-29T21:14:39.471Z,9.30
2018-03-29T21:17:06.036Z,8.07
2018-03-29T21:19:32.804Z,9.02
2018-03-29T21:21:59.380Z,9.30
2018-03-29T21:24:25.877Z,11.85
2018-03-29T21:26:53.126Z,11.70
2018-03-29T21:29:20.525Z,11.43
2018-03-29T21:31:47.039Z,10.70
2018-03-29T21:34:13.545Z,12.00
2018-03-29T21:36:40.926Z,12.60
2018-03-29T21:39:07.331Z,12.23
2018-03-29T21:41:34.684Z,11.45
2018-03-29T21:44:02.041Z,14.15
2018-03-29T21:46:29.522Z,13.50
2018-03-29T21:48:56.069Z,13.60
2018-03-29T21:51:22.531Z,11.40
2018-03-29T21:53:50.025Z,10.85
2018-03-29T21:56:17.357Z,10.20
2018-03-29T21:58:43.814Z,10.75
2018-03-29T22:01:11.142Z,11.32
2018-03-29T22:03:37.704Z,13.02
2018-03-29T22:06:05.035Z,9.77
2018-03-29T22:08:31.531Z,9.02
2018-03-29T22:10:58.104Z,9.63
2018-03-29T22:13:24.596Z,11.45
2018-03-29T22:15:51.164Z,9.35
2018-03-29T22:18:18.397Z,9.60
2018-03-29T22:20:44.884Z,11.05
2018-03-29T22:23:12.104Z,10.13
2018-03-29T22:25:38.649Z,10.02
2018-03-29T22:28:05.208Z,11.02
2018-03-29T22:30:33.120Z,11.57
2018-03-29T22:32:59.595Z,10.70
2018-03-29T22:35:26.161Z,10.65
2018-03-29T22:37:52.682Z,11.45
2018-03-29T22:40:19.222Z,10.98
2018-03-29T22:42:46.427Z,9.93
2018-03-29T22:45:13.119Z,11.90
2018-03-29T22:47:40.775Z,12.90
2018-03-29T22:50:07.328Z,9.85
2018-03-29T22:52:33.914Z,11.23
2018-03-29T22:55:00.412Z,10.65
2018-03-29T22:57:26.946Z,12.00
2018-03-29T22:59:53.437Z,11.68
2018-03-29T23:02:19.889Z,11.23
2018-03-29T23:04:47.119Z,12.50
2018-03-29T23:07:14.471Z,12.85
2018-03-29T23:09:41.715Z,10.27
2018-03-29T23:12:09.240Z,10.40
2018-03-29T23:14:35.728Z,10.98
2018-03-29T23:17:05.082Z,10.85
2018-03-29T23:19:31.592Z,11.10
2018-03-29T23:21:58.136Z,11.15
2018-03-29T23:24:24.626Z,11.23
2018-03-29T23:26:51.865Z,10.45
2018-03-29T23:29:18.324Z,11.57
2018-03-29T23:31:45.587Z,11.45
2018-03-29T23:34:12.109Z,10.45
2018-03-29T23:36:39.412Z,11.00
2018-03-29T23:39:05.888Z,11.02
2018-03-29T23:41:33.095Z,10.82
2018-03-29T23:43:59.602Z,10.30
2018-03-29T23:46:26.016Z,10.30
2018-03-29T23:48:53.244Z,12.15
2018-03-29T23:51:19.824Z,10.38
2018-03-29T23:53:46.322Z,10.75
2018-03-29T23:56:12.799Z,9.88
2018-03-29T23:58:39.291Z,11.20
